Scantic, Connecticut
Current Conditions -  °F | °C
As of 10:51 AM on Thursday 30 Oct 2014 (Local Time) from KBDL Reporting Station
Few Clouds Few Clouds  
Wind Chill: 55°   Ceiling: Unl
Heat Index: 55°   Visibility: 10mi
Dew Point: 40°   Wind: 7mph
Humidity: 57%   Direction: 300°WNW
Pressure: 29.96"   Gusts: 16mph
Location:  41.9062°N, 72.5958°W
Report Text: KBDL 301451Z 30006G14KT 10SM FEW035 FEW075 FEW250 13/04 A2996 RMK AO2 SLP147 T01280044 50001
Loading
Personal Weather Stations






























Interactive Weather Map
Tropical Storm Tracking
New forecast layout! Learn more

10-Day Weather Forecast

Advertisements
Track Severe Weather on mobile